sensor_id;sensor_type;location;lat;lon;timestamp;pressure;altitude;pressure_sealevel;temperature;humidity
10176;BME280;18221;38.704;0.152;2023-04-25T08:12:02;98730.00;;;31.91;24.78
10176;BME280;18221;38.704;0.152;2023-04-25T08:14:31;98726.41;;;31.46;25.05
10176;BME280;18221;38.704;0.152;2023-04-25T08:17:03;98716.13;;;30.98;26.10
10176;BME280;18221;38.704;0.152;2023-04-25T08:19:32;98736.47;;;30.51;27.40
10176;BME280;18221;38.704;0.152;2023-04-25T08:22:00;98730.13;;;30.21;28.28
10176;BME280;18221;38.704;0.152;2023-04-25T08:24:29;98736.97;;;29.98;28.15
10176;BME280;18221;38.704;0.152;2023-04-25T08:26:57;98738.47;;;29.59;28.80
10176;BME280;18221;38.704;0.152;2023-04-25T08:29:39;98739.53;;;29.48;29.04
10176;BME280;18221;38.704;0.152;2023-04-25T08:32:08;98738.13;;;29.35;29.47
10176;BME280;18221;38.704;0.152;2023-04-25T08:34:37;98749.53;;;29.22;29.59
10176;BME280;18221;38.704;0.152;2023-04-25T08:37:09;98744.03;;;29.17;29.66
10176;BME280;18221;38.704;0.152;2023-04-25T08:39:38;98744.78;;;29.07;29.37
10176;BME280;18221;38.704;0.152;2023-04-25T08:42:07;98742.53;;;28.99;29.21
10176;BME280;18221;38.704;0.152;2023-04-25T08:44:36;98734.06;;;28.96;29.39
10176;BME280;18221;38.704;0.152;2023-04-25T08:47:06;98738.97;;;28.94;30.37
10176;BME280;18221;38.704;0.152;2023-04-25T08:49:35;98744.13;;;28.90;30.50
10176;BME280;18221;38.704;0.152;2023-04-25T08:52:05;98747.94;;;28.89;30.70
10176;BME280;18221;38.704;0.152;2023-04-25T08:54:34;98750.69;;;28.89;30.64
10176;BME280;18221;38.704;0.152;2023-04-25T08:57:03;98743.81;;;28.87;30.70
10176;BME280;18221;38.704;0.152;2023-04-25T08:59:32;98742.66;;;28.72;31.25
10176;BME280;18221;38.704;0.152;2023-04-25T09:02:01;98747.81;;;28.69;31.53
10176;BME280;18221;38.704;0.152;2023-04-25T09:04:32;98752.56;;;28.47;31.78
10176;BME280;18221;38.704;0.152;2023-04-25T09:07:02;98757.38;;;28.40;31.40
10176;BME280;18221;38.704;0.152;2023-04-25T09:09:35;98753.06;;;28.12;33.71
10176;BME280;18221;38.704;0.152;2023-04-25T09:12:05;98760.38;;;28.06;33.93
10176;BME280;18221;38.704;0.152;2023-04-25T09:14:33;98772.28;;;28.00;34.52
10176;BME280;18221;38.704;0.152;2023-04-25T09:17:04;98765.50;;;27.76;34.46
10176;BME280;18221;38.704;0.152;2023-04-25T09:19:37;98772.84;;;27.76;34.84
10176;BME280;18221;38.704;0.152;2023-04-25T09:22:08;98761.00;;;27.65;35.28
10176;BME280;18221;38.704;0.152;2023-04-25T09:24:39;98761.66;;;27.50;35.28
10176;BME280;18221;38.704;0.152;2023-04-25T09:27:11;98761.84;;;27.44;36.46
10176;BME280;18221;38.704;0.152;2023-04-25T09:29:47;98765.97;;;27.08;37.22
10176;BME280;18221;38.704;0.152;2023-04-25T09:32:22;98770.59;;;27.08;37.49
10176;BME280;18221;38.704;0.152;2023-04-25T09:34:56;98773.25;;;27.03;37.47
10176;BME280;18221;38.704;0.152;2023-04-25T09:37:27;98758.25;;;26.83;38.03
10176;BME280;18221;38.704;0.152;2023-04-25T09:39:58;98764.25;;;26.85;38.01
10176;BME280;18221;38.704;0.152;2023-04-25T09:42:30;98770.97;;;26.61;38.66
10176;BME280;18221;38.704;0.152;2023-04-25T09:45:00;98763.78;;;26.72;38.44
10176;BME280;18221;38.704;0.152;2023-04-25T09:47:30;98779.47;;;26.81;38.81
10176;BME280;18221;38.704;0.152;2023-04-25T09:50:01;98769.16;;;26.83;38.96
10176;BME280;18221;38.704;0.152;2023-04-25T09:52:29;98772.00;;;26.93;38.72
10176;BME280;18221;38.704;0.152;2023-04-25T09:54:57;98772.81;;;27.11;38.20
10176;BME280;18221;38.704;0.152;2023-04-25T09:57:26;98779.34;;;27.10;38.85
10176;BME280;18221;38.704;0.152;2023-04-25T09:59:55;98771.16;;;27.10;39.51
10176;BME280;18221;38.704;0.152;2023-04-25T10:02:26;98780.13;;;26.72;40.48
10176;BME280;18221;38.704;0.152;2023-04-25T10:04:55;98769.56;;;26.92;39.69
10176;BME280;18221;38.704;0.152;2023-04-25T10:07:30;98782.00;;;27.05;38.84
10176;BME280;18221;38.704;0.152;2023-04-25T10:10:01;98776.94;;;27.13;38.57
10176;BME280;18221;38.704;0.152;2023-04-25T10:12:31;98784.34;;;27.18;38.43
10176;BME280;18221;38.704;0.152;2023-04-25T10:15:01;98785.53;;;27.22;38.94
10176;BME280;18221;38.704;0.152;2023-04-25T10:17:33;98777.63;;;27.04;39.21
10176;BME280;18221;38.704;0.152;2023-04-25T10:20:03;98792.31;;;27.19;38.65
10176;BME280;18221;38.704;0.152;2023-04-25T10:22:39;98789.25;;;26.99;40.05
10176;BME280;18221;38.704;0.152;2023-04-25T10:25:10;98797.41;;;26.77;40.88
10176;BME280;18221;38.704;0.152;2023-04-25T10:27:40;98786.16;;;26.90;40.34
10176;BME280;18221;38.704;0.152;2023-04-25T10:30:13;98776.59;;;26.88;39.25
10176;BME280;18221;38.704;0.152;2023-04-25T10:32:43;98778.13;;;27.01;39.40
10176;BME280;18221;38.704;0.152;2023-04-25T10:35:16;98772.50;;;27.07;38.95
10176;BME280;18221;38.704;0.152;2023-04-25T10:38:03;98783.31;;;27.02;39.58
10176;BME280;18221;38.704;0.152;2023-04-25T10:40:32;98773.41;;;26.96;40.01
10176;BME280;18221;38.704;0.152;2023-04-25T10:43:36;98781.38;;;26.64;41.35
10176;BME280;18221;38.704;0.152;2023-04-25T10:46:15;98774.03;;;26.48;41.38
10176;BME280;18221;38.704;0.152;2023-04-25T10:48:58;98766.84;;;26.42;41.56
10176;BME280;18221;38.704;0.152;2023-04-25T10:51:28;98774.44;;;26.40;41.59
10176;BME280;18221;38.704;0.152;2023-04-25T10:54:01;98766.50;;;26.72;40.88
10176;BME280;18221;38.704;0.152;2023-04-25T10:56:31;98759.16;;;26.72;40.60
10176;BME280;18221;38.704;0.152;2023-04-25T10:59:08;98754.53;;;26.89;40.43
10176;BME280;18221;38.704;0.152;2023-04-25T11:01:39;98749.25;;;26.83;40.59
10176;BME280;18221;38.704;0.152;2023-04-25T11:04:21;98750.91;;;26.84;40.33
10176;BME280;18221;38.704;0.152;2023-04-25T11:07:16;98748.22;;;27.06;40.20
10176;BME280;18221;38.704;0.152;2023-04-25T11:09:50;98743.53;;;27.23;39.60
10176;BME280;18221;38.704;0.152;2023-04-25T11:12:19;98735.66;;;27.05;40.31
10176;BME280;18221;38.704;0.152;2023-04-25T11:14:47;98734.19;;;26.97;40.77
10176;BME280;18221;38.704;0.152;2023-04-25T11:17:16;98730.59;;;27.13;40.45
10176;BME280;18221;38.704;0.152;2023-04-25T11:19:48;98731.94;;;27.11;39.60
10176;BME280;18221;38.704;0.152;2023-04-25T11:22:17;98740.34;;;26.87;40.46
10176;BME280;18221;38.704;0.152;2023-04-25T11:24:46;98726.34;;;27.01;40.39
10176;BME280;18221;38.704;0.152;2023-04-25T11:27:16;98731.53;;;27.02;39.50
10176;BME280;18221;38.704;0.152;2023-04-25T11:29:45;98731.38;;;27.09;38.38
10176;BME280;18221;38.704;0.152;2023-04-25T11:32:17;98725.63;;;26.88;36.60
10176;BME280;18221;38.704;0.152;2023-04-25T11:34:47;98722.94;;;27.10;36.95
10176;BME280;18221;38.704;0.152;2023-04-25T11:37:16;98727.69;;;27.20;37.29
10176;BME280;18221;38.704;0.152;2023-04-25T11:39:46;98731.44;;;27.14;37.72
10176;BME280;18221;38.704;0.152;2023-04-25T11:42:17;98721.53;;;27.08;38.78
10176;BME280;18221;38.704;0.152;2023-04-25T11:44:46;98715.66;;;27.16;38.40
10176;BME280;18221;38.704;0.152;2023-04-25T11:47:15;98712.84;;;27.11;37.87
10176;BME280;18221;38.704;0.152;2023-04-25T11:49:43;98710.38;;;27.09;36.54
10176;BME280;18221;38.704;0.152;2023-04-25T11:52:47;98709.59;;;27.35;34.75
10176;BME280;18221;38.704;0.152;2023-04-25T11:55:19;98702.69;;;27.28;36.19
10176;BME280;18221;38.704;0.152;2023-04-25T11:57:50;98701.69;;;27.34;35.04
10176;BME280;18221;38.704;0.152;2023-04-25T12:00:21;98706.78;;;27.47;34.64
10176;BME280;18221;38.704;0.152;2023-04-25T12:02:53;98701.56;;;27.45;32.88
10176;BME280;18221;38.704;0.152;2023-04-25T12:05:26;98702.66;;;27.66;33.71
10176;BME280;18221;38.704;0.152;2023-04-25T12:07:55;98699.03;;;27.39;34.27
10176;BME280;18221;38.704;0.152;2023-04-25T12:10:25;98692.00;;;27.43;34.20
10176;BME280;18221;38.704;0.152;2023-04-25T12:12:55;98686.16;;;27.34;32.94
10176;BME280;18221;38.704;0.152;2023-04-25T12:15:25;98674.69;;;27.11;30.11
10176;BME280;18221;38.704;0.152;2023-04-25T12:17:54;98673.03;;;27.10;30.78
10176;BME280;18221;38.704;0.152;2023-04-25T12:20:25;98679.25;;;27.05;32.33
10176;BME280;18221;38.704;0.152;2023-04-25T12:22:54;98676.59;;;27.10;33.54
10176;BME280;18221;38.704;0.152;2023-04-25T12:25:36;98668.22;;;26.95;32.11
10176;BME280;18221;38.704;0.152;2023-04-25T12:28:16;98656.56;;;27.00;32.80
10176;BME280;18221;38.704;0.152;2023-04-25T12:31:06;98668.81;;;27.19;33.83
10176;BME280;18221;38.704;0.152;2023-04-25T12:33:37;98665.00;;;27.41;33.25
10176;BME280;18221;38.704;0.152;2023-04-25T12:36:06;98661.41;;;27.63;32.52
10176;BME280;18221;38.704;0.152;2023-04-25T12:38:40;98656.47;;;27.38;33.47
10176;BME280;18221;38.704;0.152;2023-04-25T12:41:09;98656.72;;;27.36;32.95
10176;BME280;18221;38.704;0.152;2023-04-25T12:43:39;98659.72;;;27.35;33.58
10176;BME280;18221;38.704;0.152;2023-04-25T12:46:08;98647.84;;;27.46;34.27
10176;BME280;18221;38.704;0.152;2023-04-25T12:48:37;98645.69;;;27.48;35.33
10176;BME280;18221;38.704;0.152;2023-04-25T12:51:06;98644.81;;;27.69;35.17
10176;BME280;18221;38.704;0.152;2023-04-25T12:53:36;98640.13;;;27.91;34.58
10176;BME280;18221;38.704;0.152;2023-04-25T12:56:07;98640.28;;;27.80;33.31
10176;BME280;18221;38.704;0.152;2023-04-25T12:58:35;98644.94;;;27.79;34.75
10176;BME280;18221;38.704;0.152;2023-04-25T13:01:05;98646.31;;;27.55;36.32
10176;BME280;18221;38.704;0.152;2023-04-25T13:03:33;98642.97;;;27.48;36.64
10176;BME280;18221;38.704;0.152;2023-04-25T13:06:02;98644.94;;;27.52;36.94
10176;BME280;18221;38.704;0.152;2023-04-25T13:08:30;98642.03;;;27.64;37.16
10176;BME280;18221;38.704;0.152;2023-04-25T13:10:59;98644.53;;;27.66;38.41
10176;BME280;18221;38.704;0.152;2023-04-25T13:13:29;98646.47;;;27.43;37.82
10176;BME280;18221;38.704;0.152;2023-04-25T13:15:58;98647.16;;;27.34;39.35
10176;BME280;18221;38.704;0.152;2023-04-25T13:29:56;98644.38;;;27.82;40.22
10176;BME280;18221;38.704;0.152;2023-04-25T13:32:25;98636.13;;;27.72;40.43
10176;BME280;18221;38.704;0.152;2023-04-25T13:34:54;98646.03;;;27.83;39.45
10176;BME280;18221;38.704;0.152;2023-04-25T13:37:40;98638.19;;;27.87;39.85
10176;BME280;18221;38.704;0.152;2023-04-25T13:40:10;98635.63;;;28.07;39.89
10176;BME280;18221;38.704;0.152;2023-04-25T13:42:39;98621.69;;;28.03;39.01
10176;BME280;18221;38.704;0.152;2023-04-25T13:45:11;98617.66;;;28.16;37.98
10176;BME280;18221;38.704;0.152;2023-04-25T13:47:39;98616.13;;;28.25;38.10
10176;BME280;18221;38.704;0.152;2023-04-25T13:50:09;98610.97;;;28.29;37.90
10176;BME280;18221;38.704;0.152;2023-04-25T13:52:38;98607.91;;;28.25;38.37
10176;BME280;18221;38.704;0.152;2023-04-25T13:59:30;98607.84;;;28.15;38.70
10176;BME280;18221;38.704;0.152;2023-04-25T14:02:01;98592.78;;;28.07;38.02
10176;BME280;18221;38.704;0.152;2023-04-25T14:04:29;98586.06;;;28.25;36.71
10176;BME280;18221;38.704;0.152;2023-04-25T14:06:58;98587.81;;;28.41;36.20
10176;BME280;18221;38.704;0.152;2023-04-25T14:09:27;98592.66;;;28.34;35.31
10176;BME280;18221;38.704;0.152;2023-04-25T14:11:56;98590.59;;;28.04;34.52
10176;BME280;18221;38.704;0.152;2023-04-25T14:14:25;98581.44;;;28.26;35.67
10176;BME280;18221;38.704;0.152;2023-04-25T14:16:54;98582.53;;;28.25;32.11
10176;BME280;18221;38.704;0.152;2023-04-25T14:19:25;98571.06;;;28.28;35.75
10176;BME280;18221;38.704;0.152;2023-04-25T14:21:55;98569.66;;;28.20;33.55
10176;BME280;18221;38.704;0.152;2023-04-25T14:24:24;98569.72;;;28.30;33.13
10176;BME280;18221;38.704;0.152;2023-04-25T14:26:53;98562.31;;;28.21;33.10
10176;BME280;18221;38.704;0.152;2023-04-25T14:29:22;98558.41;;;28.11;33.06
10176;BME280;18221;38.704;0.152;2023-04-25T14:31:51;98550.59;;;28.30;31.99
10176;BME280;18221;38.704;0.152;2023-04-25T14:34:20;98551.31;;;28.57;33.07
10176;BME280;18221;38.704;0.152;2023-04-25T14:36:51;98529.22;;;28.64;32.41
10176;BME280;18221;38.704;0.152;2023-04-25T14:39:20;98532.44;;;28.61;30.54
10176;BME280;18221;38.704;0.152;2023-04-25T14:41:49;98539.81;;;28.55;31.05
10176;BME280;18221;38.704;0.152;2023-04-25T14:44:20;98535.78;;;28.68;30.27
10176;BME280;18221;38.704;0.152;2023-04-25T14:46:48;98538.28;;;28.74;31.80
10176;BME280;18221;38.704;0.152;2023-04-25T14:53:33;98515.63;;;28.94;32.56
10176;BME280;18221;38.704;0.152;2023-04-25T14:56:03;98514.06;;;29.18;30.91
10176;BME280;18221;38.704;0.152;2023-04-25T14:58:32;98514.63;;;29.20;32.32
10176;BME280;18221;38.704;0.152;2023-04-25T15:01:00;98512.72;;;29.31;32.21
10176;BME280;18221;38.704;0.152;2023-04-25T15:10:52;98502.63;;;29.26;33.04
10176;BME280;18221;38.704;0.152;2023-04-25T15:13:21;98491.97;;;29.35;33.23
10176;BME280;18221;38.704;0.152;2023-04-25T15:15:50;98509.66;;;29.12;33.71
10176;BME280;18221;38.704;0.152;2023-04-25T15:18:21;98510.66;;;28.71;33.90
10176;BME280;18221;38.704;0.152;2023-04-25T15:20:52;98512.28;;;28.62;33.67
10176;BME280;18221;38.704;0.152;2023-04-25T15:23:21;98514.50;;;28.75;32.68
10176;BME280;18221;38.704;0.152;2023-04-25T15:25:52;98502.53;;;28.96;33.67
10176;BME280;18221;38.704;0.152;2023-04-25T15:28:20;98506.38;;;29.00;34.07
10176;BME280;18221;38.704;0.152;2023-04-25T15:30:49;98504.94;;;28.67;33.97
10176;BME280;18221;38.704;0.152;2023-04-25T15:37:45;98499.00;;;29.06;33.19
10176;BME280;18221;38.704;0.152;2023-04-25T15:40:21;98491.31;;;28.88;32.55
10176;BME280;18221;38.704;0.152;2023-04-25T15:42:53;98490.50;;;28.92;33.22
10176;BME280;18221;38.704;0.152;2023-04-25T15:45:24;98485.53;;;28.79;33.32
10176;BME280;18221;38.704;0.152;2023-04-25T15:48:02;98480.53;;;28.56;33.70
10176;BME280;18221;38.704;0.152;2023-04-25T15:50:34;98491.53;;;28.66;34.35
10176;BME280;18221;38.704;0.152;2023-04-25T15:53:03;98483.34;;;28.76;33.33
10176;BME280;18221;38.704;0.152;2023-04-25T15:55:31;98483.66;;;28.85;32.32
10176;BME280;18221;38.704;0.152;2023-04-25T15:58:02;98480.59;;;28.66;31.39
10176;BME280;18221;38.704;0.152;2023-04-25T16:00:30;98478.28;;;28.43;33.01
10176;BME280;18221;38.704;0.152;2023-04-25T16:03:02;98475.84;;;28.41;34.04
10176;BME280;18221;38.704;0.152;2023-04-25T16:05:31;98466.81;;;28.41;33.79
10176;BME280;18221;38.704;0.152;2023-04-25T16:08:02;98469.06;;;28.59;31.47
10176;BME280;18221;38.704;0.152;2023-04-25T16:10:32;98479.69;;;28.55;29.95
10176;BME280;18221;38.704;0.152;2023-04-25T16:13:02;98477.25;;;28.54;28.72
10176;BME280;18221;38.704;0.152;2023-04-25T16:15:30;98480.06;;;28.69;30.03
10176;BME280;18221;38.704;0.152;2023-04-25T16:17:59;98476.53;;;28.78;27.95
10176;BME280;18221;38.704;0.152;2023-04-25T16:20:27;98473.56;;;28.95;27.16
10176;BME280;18221;38.704;0.152;2023-04-25T16:22:56;98480.41;;;29.18;28.04
10176;BME280;18221;38.704;0.152;2023-04-25T16:25:25;98468.97;;;29.26;28.77
10176;BME280;18221;38.704;0.152;2023-04-25T16:27:53;98467.88;;;29.47;29.68
10176;BME280;18221;38.704;0.152;2023-04-25T16:30:23;98456.13;;;29.36;30.51
10176;BME280;18221;38.704;0.152;2023-04-25T16:32:52;98480.16;;;29.19;31.70
10176;BME280;18221;38.704;0.152;2023-04-25T16:35:22;98483.66;;;28.95;32.54
10176;BME280;18221;38.704;0.152;2023-04-25T16:37:51;98475.72;;;28.73;33.60
10176;BME280;18221;38.704;0.152;2023-04-25T16:40:19;98481.63;;;28.55;33.72
10176;BME280;18221;38.704;0.152;2023-04-25T16:42:47;98481.53;;;28.35;34.13
10176;BME280;18221;38.704;0.152;2023-04-25T16:45:16;98473.78;;;28.11;31.28
10176;BME280;18221;38.704;0.152;2023-04-25T16:47:47;98482.69;;;27.97;33.21
10176;BME280;18221;38.704;0.152;2023-04-25T16:50:17;98474.47;;;27.92;32.50
10176;BME280;18221;38.704;0.152;2023-04-25T16:52:48;98478.16;;;28.07;29.21
10176;BME280;18221;38.704;0.152;2023-04-25T16:55:18;98477.88;;;28.09;29.34
10176;BME280;18221;38.704;0.152;2023-04-25T16:57:47;98474.06;;;28.10;28.92
10176;BME280;18221;38.704;0.152;2023-04-25T17:00:16;98478.66;;;28.04;29.57
10176;BME280;18221;38.704;0.152;2023-04-25T17:02:52;98465.03;;;28.04;29.98
10176;BME280;18221;38.704;0.152;2023-04-25T17:05:25;98462.88;;;28.11;28.65
10176;BME280;18221;38.704;0.152;2023-04-25T17:07:53;98464.03;;;28.21;27.89
10176;BME280;18221;38.704;0.152;2023-04-25T17:10:22;98474.31;;;28.08;30.38
10176;BME280;18221;38.704;0.152;2023-04-25T17:12:51;98470.50;;;28.09;31.67
10176;BME280;18221;38.704;0.152;2023-04-25T17:15:22;98468.84;;;28.03;32.91
10176;BME280;18221;38.704;0.152;2023-04-25T17:17:53;98456.69;;;27.79;32.60
10176;BME280;18221;38.704;0.152;2023-04-25T17:20:23;98460.38;;;27.63;30.28
10176;BME280;18221;38.704;0.152;2023-04-25T17:22:55;98461.97;;;27.59;31.71
10176;BME280;18221;38.704;0.152;2023-04-25T17:25:24;98463.25;;;27.46;32.59
10176;BME280;18221;38.704;0.152;2023-04-25T17:27:53;98460.50;;;27.41;33.47
10176;BME280;18221;38.704;0.152;2023-04-25T17:30:22;98454.13;;;27.36;33.82
10176;BME280;18221;38.704;0.152;2023-04-25T17:32:53;98456.81;;;27.31;34.14
10176;BME280;18221;38.704;0.152;2023-04-25T17:35:30;98453.66;;;27.12;34.55
10176;BME280;18221;38.704;0.152;2023-04-25T17:37:59;98452.28;;;27.10;33.37
10176;BME280;18221;38.704;0.152;2023-04-25T17:40:28;98451.81;;;27.18;33.79
10176;BME280;18221;38.704;0.152;2023-04-25T17:42:57;98455.13;;;27.25;34.72
10176;BME280;18221;38.704;0.152;2023-04-25T17:45:25;98460.53;;;27.20;34.72
10176;BME280;18221;38.704;0.152;2023-04-25T17:47:57;98460.03;;;27.23;32.96
10176;BME280;18221;38.704;0.152;2023-04-25T17:50:25;98450.06;;;27.07;33.16
10176;BME280;18221;38.704;0.152;2023-04-25T17:52:54;98453.63;;;27.07;32.89
10176;BME280;18221;38.704;0.152;2023-04-25T17:55:22;98448.69;;;27.04;32.50
10176;BME280;18221;38.704;0.152;2023-04-25T17:57:50;98451.44;;;27.09;32.99
10176;BME280;18221;38.704;0.152;2023-04-25T18:00:19;98447.34;;;27.07;33.83
10176;BME280;18221;38.704;0.152;2023-04-25T18:02:48;98448.72;;;27.09;34.92
10176;BME280;18221;38.704;0.152;2023-04-25T18:05:19;98447.28;;;27.02;35.24
10176;BME280;18221;38.704;0.152;2023-04-25T18:07:47;98454.50;;;27.13;35.14
10176;BME280;18221;38.704;0.152;2023-04-25T18:10:15;98446.78;;;27.05;36.01
10176;BME280;18221;38.704;0.152;2023-04-25T18:12:43;98461.28;;;26.83;34.15
10176;BME280;18221;38.704;0.152;2023-04-25T18:15:12;98462.06;;;26.79;34.54
10176;BME280;18221;38.704;0.152;2023-04-25T18:17:40;98450.91;;;26.80;34.10
10176;BME280;18221;38.704;0.152;2023-04-25T18:20:11;98454.88;;;26.73;31.98
10176;BME280;18221;38.704;0.152;2023-04-25T18:22:43;98450.72;;;26.65;35.46
10176;BME280;18221;38.704;0.152;2023-04-25T18:25:12;98454.78;;;26.63;36.49
10176;BME280;18221;38.704;0.152;2023-04-25T18:27:41;98457.56;;;26.68;37.71
10176;BME280;18221;38.704;0.152;2023-04-25T18:30:11;98457.22;;;26.59;38.27
10176;BME280;18221;38.704;0.152;2023-04-25T18:32:39;98460.94;;;26.53;39.00
10176;BME280;18221;38.704;0.152;2023-04-25T18:35:09;98463.84;;;26.47;39.10
10176;BME280;18221;38.704;0.152;2023-04-25T18:38:01;98461.47;;;26.28;40.08
10176;BME280;18221;38.704;0.152;2023-04-25T18:40:30;98465.38;;;26.16;40.50
10176;BME280;18221;38.704;0.152;2023-04-25T18:42:58;98472.72;;;26.15;40.34
10176;BME280;18221;38.704;0.152;2023-04-25T18:45:27;98467.44;;;26.09;40.81
10176;BME280;18221;38.704;0.152;2023-04-25T18:47:55;98473.66;;;26.04;40.90
10176;BME280;18221;38.704;0.152;2023-04-25T18:50:23;98470.59;;;26.01;40.51
10176;BME280;18221;38.704;0.152;2023-04-25T18:52:52;98472.34;;;25.90;40.81
10176;BME280;18221;38.704;0.152;2023-04-25T18:55:22;98480.59;;;25.78;41.04
10176;BME280;18221;38.704;0.152;2023-04-25T18:57:51;98470.50;;;25.74;40.71
10176;BME280;18221;38.704;0.152;2023-04-25T19:00:20;98485.97;;;25.73;40.20
10176;BME280;18221;38.704;0.152;2023-04-25T19:02:48;98474.31;;;25.73;38.73
10176;BME280;18221;38.704;0.152;2023-04-25T19:05:17;98477.81;;;25.73;37.21
10176;BME280;18221;38.704;0.152;2023-04-25T19:07:46;98482.47;;;25.73;36.29
10176;BME280;18221;38.704;0.152;2023-04-25T19:10:14;98474.44;;;25.83;36.25
10176;BME280;18221;38.704;0.152;2023-04-25T19:12:44;98478.84;;;25.89;36.86
10176;BME280;18221;38.704;0.152;2023-04-25T19:15:12;98478.84;;;25.89;36.47
10176;BME280;18221;38.704;0.152;2023-04-25T19:17:41;98493.78;;;25.87;35.05
10176;BME280;18221;38.704;0.152;2023-04-25T19:20:10;98484.91;;;25.91;33.84
10176;BME280;18221;38.704;0.152;2023-04-25T19:22:39;98490.16;;;25.98;34.32
10176;BME280;18221;38.704;0.152;2023-04-25T19:25:08;98490.78;;;26.05;35.06
10176;BME280;18221;38.704;0.152;2023-04-25T19:27:37;98497.06;;;26.05;35.54
10176;BME280;18221;38.704;0.152;2023-04-25T19:30:09;98494.03;;;26.02;35.53
10176;BME280;18221;38.704;0.152;2023-04-25T19:32:38;98492.38;;;26.01;35.64
10176;BME280;18221;38.704;0.152;2023-04-25T19:35:08;98497.31;;;26.04;35.48
10176;BME280;18221;38.704;0.152;2023-04-25T19:37:37;98494.47;;;25.94;36.33
10176;BME280;18221;38.704;0.152;2023-04-25T19:40:13;98499.00;;;25.88;35.96
10176;BME280;18221;38.704;0.152;2023-04-25T19:42:42;98490.28;;;25.86;36.87
10176;BME280;18221;38.704;0.152;2023-04-25T19:45:12;98493.00;;;25.86;36.87
10176;BME280;18221;38.704;0.152;2023-04-25T19:47:41;98497.53;;;25.81;37.19
10176;BME280;18221;38.704;0.152;2023-04-25T19:50:10;98489.88;;;25.77;37.25
10176;BME280;18221;38.704;0.152;2023-04-25T19:52:39;98502.56;;;25.72;37.48
10176;BME280;18221;38.704;0.152;2023-04-25T19:55:09;98506.69;;;25.74;37.50
10176;BME280;18221;38.704;0.152;2023-04-25T19:57:37;98510.44;;;25.73;37.76
10176;BME280;18221;38.704;0.152;2023-04-25T20:00:10;98513.25;;;25.78;37.71
10176;BME280;18221;38.704;0.152;2023-04-25T20:02:42;98515.88;;;25.73;38.25
10176;BME280;18221;38.704;0.152;2023-04-25T20:05:13;98510.16;;;25.70;37.97
10176;BME280;18221;38.704;0.152;2023-04-25T20:07:43;98520.13;;;25.64;37.84
10176;BME280;18221;38.704;0.152;2023-04-25T20:10:11;98519.56;;;25.62;38.22
10176;BME280;18221;38.704;0.152;2023-04-25T20:12:42;98522.28;;;25.62;38.64
10176;BME280;18221;38.704;0.152;2023-04-25T20:15:11;98517.25;;;25.54;39.09
10176;BME280;18221;38.704;0.152;2023-04-25T20:17:42;98523.41;;;25.50;38.97
10176;BME280;18221;38.704;0.152;2023-04-25T20:20:25;98523.28;;;25.45;39.52
10176;BME280;18221;38.704;0.152;2023-04-25T20:22:53;98533.59;;;25.43;39.55
10176;BME280;18221;38.704;0.152;2023-04-25T20:25:22;98530.28;;;25.41;39.65
10176;BME280;18221;38.704;0.152;2023-04-25T20:27:50;98534.34;;;25.38;39.64
10176;BME280;18221;38.704;0.152;2023-04-25T20:30:19;98527.00;;;25.39;39.34
10176;BME280;18221;38.704;0.152;2023-04-25T20:32:49;98530.56;;;25.39;39.69
10176;BME280;18221;38.704;0.152;2023-04-25T20:35:18;98535.31;;;25.32;40.06
10176;BME280;18221;38.704;0.152;2023-04-25T20:37:48;98537.19;;;25.32;40.19
10176;BME280;18221;38.704;0.152;2023-04-25T20:40:19;98529.31;;;25.30;40.16
10176;BME280;18221;38.704;0.152;2023-04-25T20:42:48;98538.75;;;25.28;39.36
10176;BME280;18221;38.704;0.152;2023-04-25T20:45:18;98533.06;;;25.29;38.93
10176;BME280;18221;38.704;0.152;2023-04-25T20:47:49;98539.25;;;25.25;38.62
10176;BME280;18221;38.704;0.152;2023-04-25T20:50:18;98547.19;;;25.26;38.92
10176;BME280;18221;38.704;0.152;2023-04-25T20:52:46;98545.25;;;25.27;38.64
10176;BME280;18221;38.704;0.152;2023-04-25T20:55:14;98551.88;;;25.31;37.99
10176;BME280;18221;38.704;0.152;2023-04-25T20:57:43;98555.41;;;25.31;37.61
10176;BME280;18221;38.704;0.152;2023-04-25T21:00:13;98555.50;;;25.36;36.96
10176;BME280;18221;38.704;0.152;2023-04-25T21:03:06;98546.88;;;25.39;36.12
10176;BME280;18221;38.704;0.152;2023-04-25T21:05:34;98558.31;;;25.41;35.48
10176;BME280;18221;38.704;0.152;2023-04-25T21:08:02;98569.31;;;25.46;34.97
10176;BME280;18221;38.704;0.152;2023-04-25T21:10:31;98548.69;;;25.50;34.26
10176;BME280;18221;38.704;0.152;2023-04-25T21:12:59;98557.34;;;25.64;33.36
10176;BME280;18221;38.704;0.152;2023-04-25T21:15:28;98563.84;;;25.63;33.89
10176;BME280;18221;38.704;0.152;2023-04-25T21:17:56;98567.97;;;25.65;33.42
10176;BME280;18221;38.704;0.152;2023-04-25T21:20:39;98564.75;;;25.68;33.25
10176;BME280;18221;38.704;0.152;2023-04-25T21:23:08;98565.38;;;25.70;33.37
10176;BME280;18221;38.704;0.152;2023-04-25T21:25:36;98573.75;;;25.69;33.63
10176;BME280;18221;38.704;0.152;2023-04-25T21:28:05;98572.44;;;25.71;33.17
10176;BME280;18221;38.704;0.152;2023-04-25T21:30:34;98579.03;;;25.75;33.67
10176;BME280;18221;38.704;0.152;2023-04-25T21:33:03;98566.16;;;25.71;32.94
10176;BME280;18221;38.704;0.152;2023-04-25T21:35:32;98563.78;;;25.74;33.68
10176;BME280;18221;38.704;0.152;2023-04-25T21:38:01;98575.22;;;25.76;33.64
10176;BME280;18221;38.704;0.152;2023-04-25T21:40:30;98570.97;;;25.81;34.66
10176;BME280;18221;38.704;0.152;2023-04-25T21:42:59;98583.16;;;25.78;35.05
10176;BME280;18221;38.704;0.152;2023-04-25T21:45:29;98581.50;;;25.77;35.17
10176;BME280;18221;38.704;0.152;2023-04-25T21:47:57;98572.13;;;25.68;34.62
10176;BME280;18221;38.704;0.152;2023-04-25T21:50:28;98584.09;;;25.39;32.24
10176;BME280;18221;38.704;0.152;2023-04-25T21:52:57;98576.81;;;25.28;31.65
10176;BME280;18221;38.704;0.152;2023-04-25T21:55:27;98569.97;;;25.25;30.94
10176;BME280;18221;38.704;0.152;2023-04-25T21:57:55;98571.03;;;25.24;30.86
10176;BME280;18221;38.704;0.152;2023-04-25T22:00:29;98574.53;;;25.36;30.17